sensor_id;sensor_type;location;lat;lon;timestamp;temperature;humidity
4725;DHT22;2376;53.544;10.226;2022-10-20T00:00:19;9.60;99.90
4725;DHT22;2376;53.544;10.226;2022-10-20T00:02:46;9.70;99.90
4725;DHT22;2376;53.544;10.226;2022-10-20T00:05:13;9.70;99.90
4725;DHT22;2376;53.544;10.226;2022-10-20T00:07:40;9.70;99.90
4725;DHT22;2376;53.544;10.226;2022-10-20T00:10:07;9.70;99.90
4725;DHT22;2376;53.544;10.226;2022-10-20T00:12:34;9.60;99.90
4725;DHT22;2376;53.544;10.226;2022-10-20T00:15:02;9.60;99.90
4725;DHT22;2376;53.544;10.226;2022-10-20T00:17:29;9.70;99.90
4725;DHT22;2376;53.544;10.226;2022-10-20T00:19:56;9.70;99.90
4725;DHT22;2376;53.544;10.226;2022-10-20T00:22:23;9.70;99.90
4725;DHT22;2376;53.544;10.226;2022-10-20T00:24:50;9.70;99.90
4725;DHT22;2376;53.544;10.226;2022-10-20T00:27:17;9.50;99.90
4725;DHT22;2376;53.544;10.226;2022-10-20T00:29:45;9.50;99.90
4725;DHT22;2376;53.544;10.226;2022-10-20T00:32:14;9.50;99.90
4725;DHT22;2376;53.544;10.226;2022-10-20T00:34:40;9.50;99.90
4725;DHT22;2376;53.544;10.226;2022-10-20T00:37:07;9.60;99.90
4725;DHT22;2376;53.544;10.226;2022-10-20T00:39:34;9.50;99.90
4725;DHT22;2376;53.544;10.226;2022-10-20T00:42:01;9.60;99.90
4725;DHT22;2376;53.544;10.226;2022-10-20T00:44:48;9.60;99.90
4725;DHT22;2376;53.544;10.226;2022-10-20T00:47:19;9.60;99.90
4725;DHT22;2376;53.544;10.226;2022-10-20T00:49:46;9.60;99.90
4725;DHT22;2376;53.544;10.226;2022-10-20T00:52:15;9.60;99.90
4725;DHT22;2376;53.544;10.226;2022-10-20T00:54:43;9.40;99.90
4725;DHT22;2376;53.544;10.226;2022-10-20T00:57:10;9.30;99.90
4725;DHT22;2376;53.544;10.226;2022-10-20T00:59:38;9.20;99.90
4725;DHT22;2376;53.544;10.226;2022-10-20T01:02:06;9.30;99.90
4725;DHT22;2376;53.544;10.226;2022-10-20T01:04:36;9.40;99.90
4725;DHT22;2376;53.544;10.226;2022-10-20T01:07:03;9.40;99.90
4725;DHT22;2376;53.544;10.226;2022-10-20T01:09:31;9.50;99.90
4725;DHT22;2376;53.544;10.226;2022-10-20T01:12:06;9.50;99.90
4725;DHT22;2376;53.544;10.226;2022-10-20T01:14:41;9.50;99.90
4725;DHT22;2376;53.544;10.226;2022-10-20T01:17:16;9.50;99.90
4725;DHT22;2376;53.544;10.226;2022-10-20T01:20:11;9.50;99.90
4725;DHT22;2376;53.544;10.226;2022-10-20T01:26:05;9.50;99.90
4725;DHT22;2376;53.544;10.226;2022-10-20T01:28:38;9.40;99.90
4725;DHT22;2376;53.544;10.226;2022-10-20T01:31:16;9.40;99.90
4725;DHT22;2376;53.544;10.226;2022-10-20T01:33:48;9.40;99.90
4725;DHT22;2376;53.544;10.226;2022-10-20T01:36:23;9.40;99.90
4725;DHT22;2376;53.544;10.226;2022-10-20T01:38:57;9.40;99.90
4725;DHT22;2376;53.544;10.226;2022-10-20T01:41:30;9.30;99.90
4725;DHT22;2376;53.544;10.226;2022-10-20T01:44:00;9.30;99.90
4725;DHT22;2376;53.544;10.226;2022-10-20T01:46:28;9.40;99.90
4725;DHT22;2376;53.544;10.226;2022-10-20T01:48:56;9.40;99.90
4725;DHT22;2376;53.544;10.226;2022-10-20T01:51:23;9.40;99.90
4725;DHT22;2376;53.544;10.226;2022-10-20T01:53:50;9.40;99.90
4725;DHT22;2376;53.544;10.226;2022-10-20T01:56:22;9.40;99.90
4725;DHT22;2376;53.544;10.226;2022-10-20T01:59:12;9.50;99.90
4725;DHT22;2376;53.544;10.226;2022-10-20T02:01:58;9.40;99.90
4725;DHT22;2376;53.544;10.226;2022-10-20T02:04:36;9.40;99.90
4725;DHT22;2376;53.544;10.226;2022-10-20T02:07:10;9.30;99.90
4725;DHT22;2376;53.544;10.226;2022-10-20T02:09:45;9.30;99.90
4725;DHT22;2376;53.544;10.226;2022-10-20T02:12:16;9.20;99.90
4725;DHT22;2376;53.544;10.226;2022-10-20T02:14:47;9.00;99.90
4725;DHT22;2376;53.544;10.226;2022-10-20T02:17:15;9.00;99.90
4725;DHT22;2376;53.544;10.226;2022-10-20T02:19:45;8.90;99.90
4725;DHT22;2376;53.544;10.226;2022-10-20T02:22:14;8.90;99.90
4725;DHT22;2376;53.544;10.226;2022-10-20T02:24:44;8.80;99.90
4725;DHT22;2376;53.544;10.226;2022-10-20T02:27:14;8.70;99.90
4725;DHT22;2376;53.544;10.226;2022-10-20T02:29:44;8.60;99.90
4725;DHT22;2376;53.544;10.226;2022-10-20T02:32:14;8.60;99.90
4725;DHT22;2376;53.544;10.226;2022-10-20T02:34:42;8.70;99.90
4725;DHT22;2376;53.544;10.226;2022-10-20T02:37:10;8.70;99.90
4725;DHT22;2376;53.544;10.226;2022-10-20T02:39:36;8.60;99.90
4725;DHT22;2376;53.544;10.226;2022-10-20T02:42:03;8.60;99.90
4725;DHT22;2376;53.544;10.226;2022-10-20T02:44:30;8.60;99.90
4725;DHT22;2376;53.544;10.226;2022-10-20T02:46:57;8.50;99.90
4725;DHT22;2376;53.544;10.226;2022-10-20T02:49:25;8.60;99.90
4725;DHT22;2376;53.544;10.226;2022-10-20T02:51:51;8.60;99.90
4725;DHT22;2376;53.544;10.226;2022-10-20T02:54:18;8.60;99.90
4725;DHT22;2376;53.544;10.226;2022-10-20T02:56:45;8.50;99.90
4725;DHT22;2376;53.544;10.226;2022-10-20T02:59:13;8.50;99.90
4725;DHT22;2376;53.544;10.226;2022-10-20T03:01:41;8.60;99.90
4725;DHT22;2376;53.544;10.226;2022-10-20T03:04:08;8.50;99.90
4725;DHT22;2376;53.544;10.226;2022-10-20T03:06:36;8.60;99.90
4725;DHT22;2376;53.544;10.226;2022-10-20T03:09:03;8.70;99.90
4725;DHT22;2376;53.544;10.226;2022-10-20T03:11:30;8.80;99.90
4725;DHT22;2376;53.544;10.226;2022-10-20T03:13:56;8.80;99.90
4725;DHT22;2376;53.544;10.226;2022-10-20T03:16:23;8.70;99.90
4725;DHT22;2376;53.544;10.226;2022-10-20T03:18:50;8.60;99.90
4725;DHT22;2376;53.544;10.226;2022-10-20T03:21:17;8.60;99.90
4725;DHT22;2376;53.544;10.226;2022-10-20T03:23:45;8.70;99.90
4725;DHT22;2376;53.544;10.226;2022-10-20T03:26:12;8.50;99.90
4725;DHT22;2376;53.544;10.226;2022-10-20T03:28:39;8.50;99.90
4725;DHT22;2376;53.544;10.226;2022-10-20T03:31:06;8.50;99.90
4725;DHT22;2376;53.544;10.226;2022-10-20T03:33:33;8.40;99.90
4725;DHT22;2376;53.544;10.226;2022-10-20T03:36:00;8.50;99.90
4725;DHT22;2376;53.544;10.226;2022-10-20T03:38:26;8.30;99.90
4725;DHT22;2376;53.544;10.226;2022-10-20T03:40:55;8.30;99.90
4725;DHT22;2376;53.544;10.226;2022-10-20T03:43:21;8.20;99.90
4725;DHT22;2376;53.544;10.226;2022-10-20T03:45:48;8.20;99.90
4725;DHT22;2376;53.544;10.226;2022-10-20T03:48:15;8.10;99.90
4725;DHT22;2376;53.544;10.226;2022-10-20T03:50:42;8.20;99.90
4725;DHT22;2376;53.544;10.226;2022-10-20T03:53:14;8.20;99.90
4725;DHT22;2376;53.544;10.226;2022-10-20T03:55:40;8.30;99.90
4725;DHT22;2376;53.544;10.226;2022-10-20T03:58:08;8.20;99.90
4725;DHT22;2376;53.544;10.226;2022-10-20T04:00:35;8.10;99.90
4725;DHT22;2376;53.544;10.226;2022-10-20T04:03:02;8.00;99.90
4725;DHT22;2376;53.544;10.226;2022-10-20T04:05:29;7.90;99.90
4725;DHT22;2376;53.544;10.226;2022-10-20T04:07:55;7.90;99.90
4725;DHT22;2376;53.544;10.226;2022-10-20T04:10:22;7.90;99.90
4725;DHT22;2376;53.544;10.226;2022-10-20T04:12:49;7.90;99.90
4725;DHT22;2376;53.544;10.226;2022-10-20T04:15:17;7.80;99.90
4725;DHT22;2376;53.544;10.226;2022-10-20T04:17:43;7.90;99.90
4725;DHT22;2376;53.544;10.226;2022-10-20T04:20:10;8.10;99.90
4725;DHT22;2376;53.544;10.226;2022-10-20T04:22:37;8.10;99.90
4725;DHT22;2376;53.544;10.226;2022-10-20T04:25:05;8.20;99.90
4725;DHT22;2376;53.544;10.226;2022-10-20T04:27:32;8.20;99.90
4725;DHT22;2376;53.544;10.226;2022-10-20T04:29:59;8.20;99.90
4725;DHT22;2376;53.544;10.226;2022-10-20T04:32:27;8.30;99.90
4725;DHT22;2376;53.544;10.226;2022-10-20T04:34:54;8.30;99.90
4725;DHT22;2376;53.544;10.226;2022-10-20T04:37:21;8.30;99.90
4725;DHT22;2376;53.544;10.226;2022-10-20T04:39:47;8.30;99.90
4725;DHT22;2376;53.544;10.226;2022-10-20T04:42:15;8.20;99.90
4725;DHT22;2376;53.544;10.226;2022-10-20T04:44:42;8.20;99.90
4725;DHT22;2376;53.544;10.226;2022-10-20T04:47:08;8.30;99.90
4725;DHT22;2376;53.544;10.226;2022-10-20T04:49:36;8.30;99.90
4725;DHT22;2376;53.544;10.226;2022-10-20T04:52:03;8.30;99.90
4725;DHT22;2376;53.544;10.226;2022-10-20T04:54:30;8.30;99.90
4725;DHT22;2376;53.544;10.226;2022-10-20T04:56:57;8.20;99.90
4725;DHT22;2376;53.544;10.226;2022-10-20T04:59:23;8.10;99.90
4725;DHT22;2376;53.544;10.226;2022-10-20T05:01:50;8.10;99.90
4725;DHT22;2376;53.544;10.226;2022-10-20T05:04:17;8.10;99.90
4725;DHT22;2376;53.544;10.226;2022-10-20T05:06:48;8.10;99.90
4725;DHT22;2376;53.544;10.226;2022-10-20T05:09:15;8.10;99.90
4725;DHT22;2376;53.544;10.226;2022-10-20T05:11:42;8.20;99.90
4725;DHT22;2376;53.544;10.226;2022-10-20T05:14:09;8.20;99.90
4725;DHT22;2376;53.544;10.226;2022-10-20T05:16:35;8.20;99.90
4725;DHT22;2376;53.544;10.226;2022-10-20T05:19:02;8.10;99.90
4725;DHT22;2376;53.544;10.226;2022-10-20T05:21:30;8.10;99.90
4725;DHT22;2376;53.544;10.226;2022-10-20T05:24:00;7.90;99.90
4725;DHT22;2376;53.544;10.226;2022-10-20T05:26:27;7.70;99.90
4725;DHT22;2376;53.544;10.226;2022-10-20T05:28:56;7.70;99.90
4725;DHT22;2376;53.544;10.226;2022-10-20T05:31:23;7.70;99.90
4725;DHT22;2376;53.544;10.226;2022-10-20T05:33:52;7.70;99.90
4725;DHT22;2376;53.544;10.226;2022-10-20T05:36:22;7.70;99.90
4725;DHT22;2376;53.544;10.226;2022-10-20T05:38:50;7.70;99.90
4725;DHT22;2376;53.544;10.226;2022-10-20T05:41:21;7.70;99.90
4725;DHT22;2376;53.544;10.226;2022-10-20T05:43:48;7.50;99.90
4725;DHT22;2376;53.544;10.226;2022-10-20T05:46:16;7.70;99.90
4725;DHT22;2376;53.544;10.226;2022-10-20T05:48:43;7.60;99.90
4725;DHT22;2376;53.544;10.226;2022-10-20T05:51:11;7.60;99.90
4725;DHT22;2376;53.544;10.226;2022-10-20T05:53:38;7.60;99.90
4725;DHT22;2376;53.544;10.226;2022-10-20T05:56:07;7.60;99.90
4725;DHT22;2376;53.544;10.226;2022-10-20T05:58:35;7.50;99.90
4725;DHT22;2376;53.544;10.226;2022-10-20T06:01:06;7.60;99.90
4725;DHT22;2376;53.544;10.226;2022-10-20T06:03:34;7.50;99.90
4725;DHT22;2376;53.544;10.226;2022-10-20T06:06:01;7.60;99.90
4725;DHT22;2376;53.544;10.226;2022-10-20T06:08:29;7.50;99.90
4725;DHT22;2376;53.544;10.226;2022-10-20T06:11:00;7.50;99.90
4725;DHT22;2376;53.544;10.226;2022-10-20T06:13:27;7.60;99.90
4725;DHT22;2376;53.544;10.226;2022-10-20T06:16:00;7.80;99.90
4725;DHT22;2376;53.544;10.226;2022-10-20T06:18:26;7.70;99.90
4725;DHT22;2376;53.544;10.226;2022-10-20T06:20:58;7.80;99.90
4725;DHT22;2376;53.544;10.226;2022-10-20T06:23:25;7.80;99.90
4725;DHT22;2376;53.544;10.226;2022-10-20T06:25:52;7.80;99.90
4725;DHT22;2376;53.544;10.226;2022-10-20T06:28:19;7.80;99.90
4725;DHT22;2376;53.544;10.226;2022-10-20T06:30:45;7.80;99.90
4725;DHT22;2376;53.544;10.226;2022-10-20T06:33:13;8.00;99.90
4725;DHT22;2376;53.544;10.226;2022-10-20T06:35:41;7.80;99.90
4725;DHT22;2376;53.544;10.226;2022-10-20T06:38:07;7.90;99.90
4725;DHT22;2376;53.544;10.226;2022-10-20T06:40:34;8.20;99.90
4725;DHT22;2376;53.544;10.226;2022-10-20T06:43:01;8.20;99.90
4725;DHT22;2376;53.544;10.226;2022-10-20T06:45:27;8.30;99.90
4725;DHT22;2376;53.544;10.226;2022-10-20T06:47:54;8.30;99.90
4725;DHT22;2376;53.544;10.226;2022-10-20T06:50:22;8.40;99.90
4725;DHT22;2376;53.544;10.226;2022-10-20T06:52:49;8.50;99.90
4725;DHT22;2376;53.544;10.226;2022-10-20T06:55:15;8.60;99.90
4725;DHT22;2376;53.544;10.226;2022-10-20T06:57:42;8.60;99.90
4725;DHT22;2376;53.544;10.226;2022-10-20T07:00:09;8.60;99.90
4725;DHT22;2376;53.544;10.226;2022-10-20T07:02:37;8.60;99.90
4725;DHT22;2376;53.544;10.226;2022-10-20T07:05:05;8.70;99.90
4725;DHT22;2376;53.544;10.226;2022-10-20T07:07:33;8.60;99.90
4725;DHT22;2376;53.544;10.226;2022-10-20T07:09:59;8.70;99.90
4725;DHT22;2376;53.544;10.226;2022-10-20T07:12:26;8.60;99.90
4725;DHT22;2376;53.544;10.226;2022-10-20T07:14:53;8.80;99.90
4725;DHT22;2376;53.544;10.226;2022-10-20T07:17:19;8.70;99.90
4725;DHT22;2376;53.544;10.226;2022-10-20T07:19:46;8.70;99.90
4725;DHT22;2376;53.544;10.226;2022-10-20T07:22:12;8.80;99.90
4725;DHT22;2376;53.544;10.226;2022-10-20T07:24:40;8.80;99.90
4725;DHT22;2376;53.544;10.226;2022-10-20T07:27:07;8.80;99.90
4725;DHT22;2376;53.544;10.226;2022-10-20T07:29:34;8.90;99.90
4725;DHT22;2376;53.544;10.226;2022-10-20T07:32:00;9.00;99.90
4725;DHT22;2376;53.544;10.226;2022-10-20T07:34:27;9.10;99.90
4725;DHT22;2376;53.544;10.226;2022-10-20T07:36:55;9.20;99.90
4725;DHT22;2376;53.544;10.226;2022-10-20T07:39:23;9.20;99.90
4725;DHT22;2376;53.544;10.226;2022-10-20T07:41:51;9.30;99.90
4725;DHT22;2376;53.544;10.226;2022-10-20T07:44:17;9.30;99.90
4725;DHT22;2376;53.544;10.226;2022-10-20T07:46:44;9.30;99.90
4725;DHT22;2376;53.544;10.226;2022-10-20T07:49:11;9.30;99.90
4725;DHT22;2376;53.544;10.226;2022-10-20T07:51:38;9.50;99.90
4725;DHT22;2376;53.544;10.226;2022-10-20T07:54:06;9.50;99.90
4725;DHT22;2376;53.544;10.226;2022-10-20T07:56:35;9.40;99.90
4725;DHT22;2376;53.544;10.226;2022-10-20T07:59:04;9.40;99.90
4725;DHT22;2376;53.544;10.226;2022-10-20T08:01:31;9.30;99.90
4725;DHT22;2376;53.544;10.226;2022-10-20T08:03:58;9.40;99.90
4725;DHT22;2376;53.544;10.226;2022-10-20T08:06:25;9.50;99.90
4725;DHT22;2376;53.544;10.226;2022-10-20T08:08:52;9.70;99.90
4725;DHT22;2376;53.544;10.226;2022-10-20T08:11:19;9.80;99.90
4725;DHT22;2376;53.544;10.226;2022-10-20T08:13:46;10.00;99.90
4725;DHT22;2376;53.544;10.226;2022-10-20T08:16:14;10.10;99.90
4725;DHT22;2376;53.544;10.226;2022-10-20T08:18:42;10.10;99.90
4725;DHT22;2376;53.544;10.226;2022-10-20T08:21:12;10.30;99.90
4725;DHT22;2376;53.544;10.226;2022-10-20T08:23:41;10.40;99.90
4725;DHT22;2376;53.544;10.226;2022-10-20T08:26:08;10.50;99.90
4725;DHT22;2376;53.544;10.226;2022-10-20T08:28:36;10.40;99.90
4725;DHT22;2376;53.544;10.226;2022-10-20T08:31:04;10.40;99.90
4725;DHT22;2376;53.544;10.226;2022-10-20T08:33:33;10.30;99.90
4725;DHT22;2376;53.544;10.226;2022-10-20T08:36:01;10.30;99.90
4725;DHT22;2376;53.544;10.226;2022-10-20T08:38:28;10.50;99.90
4725;DHT22;2376;53.544;10.226;2022-10-20T08:40:55;10.30;99.90
4725;DHT22;2376;53.544;10.226;2022-10-20T08:43:22;10.50;99.90
4725;DHT22;2376;53.544;10.226;2022-10-20T08:45:48;10.60;99.90
4725;DHT22;2376;53.544;10.226;2022-10-20T08:48:18;10.90;99.90
4725;DHT22;2376;53.544;10.226;2022-10-20T08:50:49;11.00;99.90
4725;DHT22;2376;53.544;10.226;2022-10-20T08:53:17;11.00;99.90
4725;DHT22;2376;53.544;10.226;2022-10-20T08:55:45;11.10;99.90
4725;DHT22;2376;53.544;10.226;2022-10-20T08:58:14;11.00;99.90
4725;DHT22;2376;53.544;10.226;2022-10-20T09:00:42;11.10;99.90
4725;DHT22;2376;53.544;10.226;2022-10-20T09:03:15;10.70;99.90
4725;DHT22;2376;53.544;10.226;2022-10-20T09:05:44;10.90;99.90
4725;DHT22;2376;53.544;10.226;2022-10-20T09:08:13;10.90;99.90
4725;DHT22;2376;53.544;10.226;2022-10-20T09:10:44;11.20;99.90
4725;DHT22;2376;53.544;10.226;2022-10-20T09:13:18;11.00;99.90
4725;DHT22;2376;53.544;10.226;2022-10-20T09:15:46;10.90;99.90
4725;DHT22;2376;53.544;10.226;2022-10-20T09:18:14;10.90;99.90
4725;DHT22;2376;53.544;10.226;2022-10-20T09:20:45;11.20;99.90
4725;DHT22;2376;53.544;10.226;2022-10-20T09:23:16;11.30;99.90
4725;DHT22;2376;53.544;10.226;2022-10-20T09:25:44;11.10;99.90
4725;DHT22;2376;53.544;10.226;2022-10-20T09:28:19;11.30;99.90
4725;DHT22;2376;53.544;10.226;2022-10-20T09:30:46;11.20;99.90
4725;DHT22;2376;53.544;10.226;2022-10-20T09:33:21;11.30;99.90
4725;DHT22;2376;53.544;10.226;2022-10-20T09:35:48;11.60;99.90
4725;DHT22;2376;53.544;10.226;2022-10-20T09:38:19;11.60;99.90
4725;DHT22;2376;53.544;10.226;2022-10-20T09:40:57;11.60;99.90
4725;DHT22;2376;53.544;10.226;2022-10-20T09:43:28;11.70;99.90
4725;DHT22;2376;53.544;10.226;2022-10-20T09:45:57;11.90;99.90
4725;DHT22;2376;53.544;10.226;2022-10-20T09:48:27;12.10;99.90
4725;DHT22;2376;53.544;10.226;2022-10-20T09:50:57;12.10;99.90
4725;DHT22;2376;53.544;10.226;2022-10-20T09:53:27;12.20;99.90
4725;DHT22;2376;53.544;10.226;2022-10-20T09:55:56;12.20;99.90
4725;DHT22;2376;53.544;10.226;2022-10-20T09:58:28;12.40;99.90
4725;DHT22;2376;53.544;10.226;2022-10-20T10:00:58;12.50;99.90
4725;DHT22;2376;53.544;10.226;2022-10-20T10:03:25;12.60;99.90
4725;DHT22;2376;53.544;10.226;2022-10-20T10:05:53;12.70;99.90
4725;DHT22;2376;53.544;10.226;2022-10-20T10:08:21;12.80;99.90
4725;DHT22;2376;53.544;10.226;2022-10-20T10:11:01;12.80;99.90
4725;DHT22;2376;53.544;10.226;2022-10-20T10:13:29;12.80;99.90
4725;DHT22;2376;53.544;10.226;2022-10-20T10:16:03;13.00;99.90
4725;DHT22;2376;53.544;10.226;2022-10-20T10:18:30;13.00;99.90
4725;DHT22;2376;53.544;10.226;2022-10-20T10:21:00;13.10;99.90
4725;DHT22;2376;53.544;10.226;2022-10-20T10:23:28;13.10;99.90
4725;DHT22;2376;53.544;10.226;2022-10-20T10:25:56;13.20;99.90
4725;DHT22;2376;53.544;10.226;2022-10-20T10:28:33;13.30;99.90
4725;DHT22;2376;53.544;10.226;2022-10-20T10:33:53;13.40;99.90
4725;DHT22;2376;53.544;10.226;2022-10-20T10:36:32;13.10;99.90
4725;DHT22;2376;53.544;10.226;2022-10-20T10:38:59;12.90;99.90
4725;DHT22;2376;53.544;10.226;2022-10-20T10:41:39;13.00;99.90
4725;DHT22;2376;53.544;10.226;2022-10-20T10:44:19;12.70;99.90
4725;DHT22;2376;53.544;10.226;2022-10-20T10:46:56;12.80;99.90
4725;DHT22;2376;53.544;10.226;2022-10-20T10:49:37;12.90;99.90
4725;DHT22;2376;53.544;10.226;2022-10-20T10:52:14;13.30;99.90
4725;DHT22;2376;53.544;10.226;2022-10-20T10:54:55;13.20;99.90
4725;DHT22;2376;53.544;10.226;2022-10-20T10:57:29;12.90;99.90
4725;DHT22;2376;53.544;10.226;2022-10-20T10:59:59;12.80;99.90
4725;DHT22;2376;53.544;10.226;2022-10-20T11:02:51;12.90;99.90
4725;DHT22;2376;53.544;10.226;2022-10-20T11:08:21;13.00;99.90
4725;DHT22;2376;53.544;10.226;2022-10-20T11:10:53;13.00;99.90
4725;DHT22;2376;53.544;10.226;2022-10-20T11:13:29;13.40;99.90
4725;DHT22;2376;53.544;10.226;2022-10-20T11:16:13;13.50;99.90
4725;DHT22;2376;53.544;10.226;2022-10-20T11:21:50;13.30;99.90
4725;DHT22;2376;53.544;10.226;2022-10-20T11:24:28;13.40;99.90
4725;DHT22;2376;53.544;10.226;2022-10-20T11:27:06;13.50;99.90
4725;DHT22;2376;53.544;10.226;2022-10-20T11:29:38;13.10;99.90
4725;DHT22;2376;53.544;10.226;2022-10-20T11:32:15;13.50;99.90
4725;DHT22;2376;53.544;10.226;2022-10-20T11:34:49;13.70;99.90
4725;DHT22;2376;53.544;10.226;2022-10-20T11:37:22;13.70;99.90
4725;DHT22;2376;53.544;10.226;2022-10-20T11:39:56;13.90;99.90
4725;DHT22;2376;53.544;10.226;2022-10-20T11:42:29;13.80;99.90
4725;DHT22;2376;53.544;10.226;2022-10-20T11:44:58;14.10;99.90
4725;DHT22;2376;53.544;10.226;2022-10-20T11:47:32;14.00;99.90
4725;DHT22;2376;53.544;10.226;2022-10-20T11:49:59;14.00;99.90
4725;DHT22;2376;53.544;10.226;2022-10-20T11:52:56;13.70;99.90
4725;DHT22;2376;53.544;10.226;2022-10-20T11:55:52;13.40;99.90
4725;DHT22;2376;53.544;10.226;2022-10-20T11:58:53;13.30;99.90
4725;DHT22;2376;53.544;10.226;2022-10-20T12:01:30;13.60;99.90
4725;DHT22;2376;53.544;10.226;2022-10-20T12:04:24;13.70;99.90
4725;DHT22;2376;53.544;10.226;2022-10-20T12:07:11;14.10;99.90
4725;DHT22;2376;53.544;10.226;2022-10-20T12:10:02;14.30;99.90
4725;DHT22;2376;53.544;10.226;2022-10-20T12:12:35;14.60;99.90
4725;DHT22;2376;53.544;10.226;2022-10-20T12:15:19;14.40;99.90
4725;DHT22;2376;53.544;10.226;2022-10-20T12:17:47;14.60;99.90
4725;DHT22;2376;53.544;10.226;2022-10-20T12:20:46;14.40;99.90
4725;DHT22;2376;53.544;10.226;2022-10-20T12:32:52;14.40;99.90
4725;DHT22;2376;53.544;10.226;2022-10-20T12:38:23;14.40;99.90
4725;DHT22;2376;53.544;10.226;2022-10-20T12:40:53;14.40;99.90
4725;DHT22;2376;53.544;10.226;2022-10-20T12:46:08;14.30;99.90
4725;DHT22;2376;53.544;10.226;2022-10-20T12:48:41;14.40;99.90
4725;DHT22;2376;53.544;10.226;2022-10-20T12:51:21;14.20;99.90
4725;DHT22;2376;53.544;10.226;2022-10-20T12:53:56;14.50;99.90
4725;DHT22;2376;53.544;10.226;2022-10-20T12:56:27;14.40;99.90
4725;DHT22;2376;53.544;10.226;2022-10-20T12:59:21;14.60;99.90
4725;DHT22;2376;53.544;10.226;2022-10-20T13:05:38;14.60;99.90
4725;DHT22;2376;53.544;10.226;2022-10-20T13:08:29;14.60;99.90
4725;DHT22;2376;53.544;10.226;2022-10-20T13:14:23;14.50;99.90
4725;DHT22;2376;53.544;10.226;2022-10-20T13:16:58;14.50;99.90
4725;DHT22;2376;53.544;10.226;2022-10-20T13:19:33;14.50;99.90
4725;DHT22;2376;53.544;10.226;2022-10-20T13:25:03;14.50;99.90
4725;DHT22;2376;53.544;10.226;2022-10-20T13:27:30;14.70;99.90
4725;DHT22;2376;53.544;10.226;2022-10-20T13:29:58;14.60;99.90
4725;DHT22;2376;53.544;10.226;2022-10-20T13:32:30;14.30;99.90
4725;DHT22;2376;53.544;10.226;2022-10-20T13:35:03;14.60;99.90
4725;DHT22;2376;53.544;10.226;2022-10-20T13:37:44;14.90;99.90
4725;DHT22;2376;53.544;10.226;2022-10-20T13:40:18;15.30;99.90
4725;DHT22;2376;53.544;10.226;2022-10-20T13:42:55;15.60;99.90
4725;DHT22;2376;53.544;10.226;2022-10-20T13:45:31;15.90;99.90
4725;DHT22;2376;53.544;10.226;2022-10-20T13:48:12;16.00;99.90
4725;DHT22;2376;53.544;10.226;2022-10-20T13:50:46;15.60;99.90
4725;DHT22;2376;53.544;10.226;2022-10-20T13:53:19;15.80;99.90
4725;DHT22;2376;53.544;10.226;2022-10-20T13:56:00;15.80;99.90
4725;DHT22;2376;53.544;10.226;2022-10-20T13:58:28;16.10;99.90
4725;DHT22;2376;53.544;10.226;2022-10-20T14:00:59;15.90;99.90
4725;DHT22;2376;53.544;10.226;2022-10-20T14:03:26;16.00;99.90
4725;DHT22;2376;53.544;10.226;2022-10-20T14:05:54;15.90;99.90
4725;DHT22;2376;53.544;10.226;2022-10-20T14:08:21;15.70;99.90
4725;DHT22;2376;53.544;10.226;2022-10-20T14:10:51;15.60;99.90
4725;DHT22;2376;53.544;10.226;2022-10-20T14:13:22;15.80;99.90
4725;DHT22;2376;53.544;10.226;2022-10-20T14:15:52;15.90;99.90
4725;DHT22;2376;53.544;10.226;2022-10-20T14:18:23;15.90;99.90
4725;DHT22;2376;53.544;10.226;2022-10-20T14:20:55;15.70;99.90
4725;DHT22;2376;53.544;10.226;2022-10-20T14:23:23;15.70;99.90
4725;DHT22;2376;53.544;10.226;2022-10-20T14:25:52;15.60;99.90
4725;DHT22;2376;53.544;10.226;2022-10-20T14:28:20;15.70;99.90
4725;DHT22;2376;53.544;10.226;2022-10-20T14:30:49;15.80;99.90
4725;DHT22;2376;53.544;10.226;2022-10-20T14:33:16;15.90;99.90
4725;DHT22;2376;53.544;10.226;2022-10-20T14:35:48;15.80;99.90
4725;DHT22;2376;53.544;10.226;2022-10-20T14:38:18;15.80;99.90
4725;DHT22;2376;53.544;10.226;2022-10-20T14:40:50;15.80;99.90
4725;DHT22;2376;53.544;10.226;2022-10-20T14:43:19;15.80;99.90
4725;DHT22;2376;53.544;10.226;2022-10-20T14:45:55;15.80;99.90
4725;DHT22;2376;53.544;10.226;2022-10-20T14:48:25;15.80;99.90
4725;DHT22;2376;53.544;10.226;2022-10-20T14:50:54;15.80;99.90
4725;DHT22;2376;53.544;10.226;2022-10-20T14:53:32;15.60;99.90
4725;DHT22;2376;53.544;10.226;2022-10-20T14:55:59;15.50;99.90
4725;DHT22;2376;53.544;10.226;2022-10-20T14:58:35;15.30;99.90
4725;DHT22;2376;53.544;10.226;2022-10-20T15:01:23;15.40;99.90
4725;DHT22;2376;53.544;10.226;2022-10-20T15:04:14;15.40;99.90
4725;DHT22;2376;53.544;10.226;2022-10-20T15:06:43;15.20;99.90
4725;DHT22;2376;53.544;10.226;2022-10-20T15:09:19;15.20;99.90
4725;DHT22;2376;53.544;10.226;2022-10-20T15:11:49;15.00;99.90
4725;DHT22;2376;53.544;10.226;2022-10-20T15:14:16;14.90;99.90
4725;DHT22;2376;53.544;10.226;2022-10-20T15:16:45;14.90;99.90
4725;DHT22;2376;53.544;10.226;2022-10-20T15:19:30;14.90;99.90
4725;DHT22;2376;53.544;10.226;2022-10-20T15:22:01;14.70;99.90
4725;DHT22;2376;53.544;10.226;2022-10-20T15:24:33;14.60;99.90
4725;DHT22;2376;53.544;10.226;2022-10-20T15:27:00;14.70;99.90
4725;DHT22;2376;53.544;10.226;2022-10-20T15:29:28;14.80;99.90
4725;DHT22;2376;53.544;10.226;2022-10-20T15:31:55;15.00;99.90
4725;DHT22;2376;53.544;10.226;2022-10-20T15:34:22;15.00;99.90
4725;DHT22;2376;53.544;10.226;2022-10-20T15:36:50;15.00;99.90
4725;DHT22;2376;53.544;10.226;2022-10-20T15:39:18;15.00;99.90
4725;DHT22;2376;53.544;10.226;2022-10-20T15:41:44;15.10;99.90
4725;DHT22;2376;53.544;10.226;2022-10-20T15:44:13;15.10;99.90
4725;DHT22;2376;53.544;10.226;2022-10-20T15:46:41;15.10;99.90
4725;DHT22;2376;53.544;10.226;2022-10-20T15:49:09;15.10;99.90
4725;DHT22;2376;53.544;10.226;2022-10-20T15:51:38;15.10;99.90
4725;DHT22;2376;53.544;10.226;2022-10-20T15:54:06;15.10;99.90
4725;DHT22;2376;53.544;10.226;2022-10-20T15:56:34;15.00;99.90
4725;DHT22;2376;53.544;10.226;2022-10-20T15:59:01;14.90;99.90
4725;DHT22;2376;53.544;10.226;2022-10-20T16:01:28;14.90;99.90
4725;DHT22;2376;53.544;10.226;2022-10-20T16:03:55;14.90;99.90
4725;DHT22;2376;53.544;10.226;2022-10-20T16:06:21;14.90;99.90
4725;DHT22;2376;53.544;10.226;2022-10-20T16:08:49;14.90;99.90
4725;DHT22;2376;53.544;10.226;2022-10-20T16:11:18;14.80;99.90
4725;DHT22;2376;53.544;10.226;2022-10-20T16:13:46;14.80;99.90
4725;DHT22;2376;53.544;10.226;2022-10-20T16:16:16;14.80;99.90
4725;DHT22;2376;53.544;10.226;2022-10-20T16:18:43;14.70;99.90
4725;DHT22;2376;53.544;10.226;2022-10-20T16:21:10;14.70;99.90
4725;DHT22;2376;53.544;10.226;2022-10-20T16:23:37;14.80;99.90
4725;DHT22;2376;53.544;10.226;2022-10-20T16:26:06;14.70;99.90
4725;DHT22;2376;53.544;10.226;2022-10-20T16:28:33;14.70;99.90
4725;DHT22;2376;53.544;10.226;2022-10-20T16:31:03;14.70;99.90
4725;DHT22;2376;53.544;10.226;2022-10-20T16:33:30;14.70;99.90
4725;DHT22;2376;53.544;10.226;2022-10-20T16:36:00;14.70;99.90
4725;DHT22;2376;53.544;10.226;2022-10-20T16:38:27;14.70;99.90
4725;DHT22;2376;53.544;10.226;2022-10-20T16:40:58;14.50;99.90
4725;DHT22;2376;53.544;10.226;2022-10-20T16:43:25;14.30;99.90
4725;DHT22;2376;53.544;10.226;2022-10-20T16:45:52;14.40;99.90
4725;DHT22;2376;53.544;10.226;2022-10-20T16:48:20;14.40;99.90
4725;DHT22;2376;53.544;10.226;2022-10-20T16:50:47;14.50;99.90